createdAt,value
2019-02-07T00:00:56.332Z,67.24
2019-02-07T00:01:56.339Z,67.27
2019-02-07T00:02:56.311Z,67.13
2019-02-07T00:03:56.301Z,67.06
2019-02-07T00:04:56.299Z,67.47
2019-02-07T00:05:56.293Z,67.06
2019-02-07T00:06:56.296Z,66.85
2019-02-07T00:07:56.257Z,66.93
2019-02-07T00:08:56.249Z,67.06
2019-02-07T00:09:56.236Z,66.75
2019-02-07T00:10:56.226Z,66.64
2019-02-07T00:11:56.235Z,66.64
2019-02-07T00:12:56.210Z,66.13
2019-02-07T00:13:56.192Z,66.33
2019-02-07T00:14:56.185Z,66.78
2019-02-07T00:15:56.171Z,66.54
2019-02-07T00:16:56.180Z,66.54
2019-02-07T00:17:56.151Z,66.44
2019-02-07T00:18:56.149Z,66.23
2019-02-07T00:19:56.133Z,66.85
2019-02-07T00:20:56.120Z,66.33
2019-02-07T00:22:05.060Z,66.78
2019-02-07T00:23:03.666Z,67.30
2019-02-07T00:24:03.651Z,67.19
2019-02-07T00:25:03.143Z,67.16
2019-02-07T00:26:03.700Z,66.44
2019-02-07T00:27:03.631Z,66.85
2019-02-07T00:27:56.129Z,66.85
2019-02-07T00:28:56.039Z,66.33
2019-02-07T00:29:56.027Z,66.96
2019-02-07T00:30:56.015Z,66.03
2019-02-07T00:31:56.015Z,66.33
2019-02-07T00:32:56.025Z,66.23
2019-02-07T00:33:55.981Z,66.54
2019-02-07T00:34:55.967Z,66.44
2019-02-07T00:35:55.968Z,66.33
2019-02-07T00:36:55.948Z,66.13
2019-02-07T00:37:55.954Z,66.13
2019-02-07T00:38:55.930Z,65.72
2019-02-07T00:39:55.920Z,65.30
2019-02-07T00:40:55.911Z,65.30
2019-02-07T00:41:55.895Z,65.09
2019-02-07T00:42:55.910Z,64.68
2019-02-07T00:43:55.880Z,64.68
2019-02-07T00:44:55.861Z,64.89
2019-02-07T00:45:55.854Z,64.92
2019-02-07T00:46:55.885Z,64.89
2019-02-07T00:47:55.839Z,65.30
2019-02-07T00:48:55.841Z,65.30
2019-02-07T00:49:55.819Z,64.89
2019-02-07T00:50:55.806Z,65.12
2019-02-07T00:51:55.789Z,65.61
2019-02-07T00:52:55.782Z,65.82
2019-02-07T00:53:55.803Z,65.61
2019-02-07T00:54:55.761Z,66.67
2019-02-07T00:55:55.746Z,66.16
2019-02-07T00:56:55.733Z,66.99
2019-02-07T00:57:55.726Z,66.67
2019-02-07T00:58:55.802Z,66.16
2019-02-07T00:59:55.708Z,67.19
2019-02-07T01:00:55.710Z,67.40
2019-02-07T01:02:03.236Z,67.40
2019-02-07T01:02:55.679Z,68.36
2019-02-07T01:03:55.684Z,69.50
2019-02-07T01:04:55.679Z,69.40
2019-02-07T01:05:55.682Z,70.12
2019-02-07T01:06:55.652Z,70.53
2019-02-07T01:07:55.619Z,70.43
2019-02-07T01:08:55.614Z,70.77
2019-02-07T01:09:55.622Z,71.60
2019-02-07T01:10:55.645Z,71.81
2019-02-07T01:11:55.583Z,71.50
2019-02-07T01:12:55.572Z,72.74
2019-02-07T01:13:55.553Z,72.88
2019-02-07T01:15:02.246Z,73.50
2019-02-07T01:15:56.533Z,73.50
2019-02-07T01:16:55.525Z,73.39
2019-02-07T01:17:55.520Z,73.39
2019-02-07T01:18:55.501Z,73.32
2019-02-07T01:19:55.517Z,73.29
2019-02-07T01:20:55.487Z,74.53
2019-02-07T01:21:55.474Z,74.36
2019-02-07T01:23:02.525Z,74.26
2019-02-07T01:23:55.453Z,74.98
2019-02-07T01:24:55.462Z,74.67
2019-02-07T01:25:55.424Z,75.09
2019-02-07T01:26:55.446Z,75.29
2019-02-07T01:27:55.429Z,75.19
2019-02-07T01:29:02.957Z,76.05
2019-02-07T01:29:55.426Z,76.43
2019-02-07T01:30:55.371Z,76.95
2019-02-07T01:31:55.363Z,75.92
2019-02-07T01:32:55.347Z,76.36
2019-02-07T01:33:55.339Z,76.43
2019-02-07T01:34:55.371Z,75.74
2019-02-07T01:35:55.324Z,76.46
2019-02-07T01:36:55.306Z,76.64
2019-02-07T01:37:55.292Z,77.71
2019-02-07T01:38:55.295Z,77.09
2019-02-07T01:39:55.293Z,76.67
2019-02-07T01:40:55.308Z,76.98
2019-02-07T01:41:55.264Z,77.09
2019-02-07T01:42:55.811Z,77.92
2019-02-07T01:43:55.227Z,77.92
2019-02-07T01:44:55.225Z,78.06
2019-02-07T01:45:55.223Z,77.64
2019-02-07T01:46:55.201Z,77.85
2019-02-07T01:47:55.186Z,78.37
2019-02-07T01:48:55.175Z,77.95
2019-02-07T01:49:55.162Z,78.68
2019-02-07T01:50:55.184Z,79.51
2019-02-07T01:51:55.142Z,79.44
2019-02-07T01:52:55.216Z,79.61
2019-02-07T01:53:55.121Z,79.71
2019-02-07T01:54:55.109Z,79.92
2019-02-07T01:55:55.210Z,79.30
2019-02-07T01:56:55.085Z,79.71
2019-02-07T01:57:55.078Z,79.71
2019-02-07T01:58:55.073Z,80.23
2019-02-07T01:59:55.055Z,80.99
2019-02-07T02:00:55.049Z,81.41
2019-02-07T02:01:55.146Z,81.30
2019-02-07T02:02:55.026Z,81.41
2019-02-07T02:03:55.098Z,80.79
2019-02-07T02:04:55.011Z,81.20
2019-02-07T02:05:54.990Z,80.99
2019-02-07T02:06:54.996Z,81.20
2019-02-07T02:07:54.968Z,81.93
2019-02-07T02:08:54.961Z,81.93
2019-02-07T02:09:54.977Z,82.14
2019-02-07T02:10:54.938Z,81.82
2019-02-07T02:11:54.946Z,82.14
2019-02-07T02:12:54.923Z,81.93
2019-02-07T02:13:54.907Z,82.45
2019-02-07T02:14:54.900Z,82.14
2019-02-07T02:15:54.892Z,82.03
2019-02-07T02:16:54.961Z,82.03
2019-02-07T02:17:54.863Z,81.97
2019-02-07T02:18:54.852Z,82.03
2019-02-07T02:19:54.844Z,81.93
2019-02-07T02:20:54.837Z,81.87
2019-02-07T02:21:54.849Z,82.18
2019-02-07T02:22:54.813Z,82.49
2019-02-07T02:23:54.805Z,82.07
2019-02-07T02:24:54.823Z,81.97
2019-02-07T02:25:54.778Z,82.80
2019-02-07T02:26:54.784Z,83.01
2019-02-07T02:27:54.758Z,82.80
2019-02-07T02:28:54.754Z,82.80
2019-02-07T02:30:01.818Z,83.01
2019-02-07T02:30:54.805Z,82.70
2019-02-07T02:31:54.750Z,82.80
2019-02-07T02:32:54.705Z,82.70
2019-02-07T02:33:54.710Z,82.90
2019-02-07T02:34:54.683Z,83.73
2019-02-07T02:35:54.674Z,82.70
2019-02-07T02:36:54.671Z,82.90
2019-02-07T02:37:54.685Z,82.80
2019-02-07T02:38:54.641Z,83.11
2019-02-07T02:39:54.637Z,82.80
2019-02-07T02:40:54.643Z,82.59
2019-02-07T02:41:54.612Z,83.22
2019-02-07T02:42:54.626Z,83.94
2019-02-07T02:43:54.591Z,83.87
2019-02-07T02:44:54.587Z,83.01
2019-02-07T02:45:54.589Z,83.01
2019-02-07T02:46:54.560Z,83.11
2019-02-07T02:47:54.581Z,82.63
2019-02-07T02:48:54.566Z,82.80
2019-02-07T02:49:54.528Z,83.01
2019-02-07T02:50:54.524Z,82.70
2019-02-07T02:51:54.505Z,83.01
2019-02-07T02:52:54.518Z,82.80
2019-02-07T02:53:54.487Z,82.70
2019-02-07T02:54:54.477Z,82.49
2019-02-07T02:55:54.468Z,83.11
2019-02-07T02:56:54.465Z,82.39
2019-02-07T02:57:54.465Z,82.59
2019-02-07T02:58:54.436Z,82.49
2019-02-07T02:59:54.427Z,82.18
2019-02-07T03:00:54.454Z,82.28
2019-02-07T03:01:54.405Z,82.90
2019-02-07T03:02:54.490Z,82.28
2019-02-07T03:03:54.393Z,81.24
2019-02-07T03:04:54.371Z,81.35
2019-02-07T03:05:54.365Z,81.56
2019-02-07T03:06:54.353Z,81.76
2019-02-07T03:07:54.337Z,81.87
2019-02-07T03:08:54.357Z,82.28
2019-02-07T03:09:54.319Z,81.35
2019-02-07T03:10:54.307Z,81.14
2019-02-07T03:11:54.298Z,81.14
2019-02-07T03:12:54.289Z,80.41
2019-02-07T03:13:54.299Z,81.10
2019-02-07T03:14:54.292Z,80.27
2019-02-07T03:15:54.258Z,80.58
2019-02-07T03:16:54.272Z,80.16
2019-02-07T03:17:54.346Z,80.58
2019-02-07T03:18:54.262Z,80.52
2019-02-07T03:19:54.276Z,80.99
2019-02-07T03:20:54.208Z,80.89
2019-02-07T03:21:54.193Z,80.89
2019-02-07T03:22:54.190Z,80.37
2019-02-07T03:23:54.171Z,79.96
2019-02-07T03:24:54.185Z,79.65
2019-02-07T03:25:54.155Z,79.85
2019-02-07T03:26:54.139Z,79.65
2019-02-07T03:27:54.130Z,79.55
2019-02-07T03:28:54.129Z,79.03
2019-02-07T03:29:54.127Z,78.82
2019-02-07T03:31:01.679Z,78.82
2019-02-07T03:32:02.682Z,79.96
2019-02-07T03:32:54.116Z,78.72
2019-02-07T03:33:54.070Z,78.82
2019-02-07T03:34:54.079Z,79.75
2019-02-07T03:35:54.046Z,79.55
2019-02-07T03:36:54.038Z,78.72
2019-02-07T03:37:54.105Z,78.51
2019-02-07T03:38:54.025Z,78.20
2019-02-07T03:39:54.082Z,77.95
2019-02-07T03:40:53.997Z,77.75
2019-02-07T03:41:54.012Z,77.54
2019-02-07T03:42:53.979Z,77.47
2019-02-07T03:43:53.975Z,77.44
2019-02-07T03:44:53.953Z,77.99
2019-02-07T03:46:02.386Z,77.99
2019-02-07T03:46:54.943Z,77.64
2019-02-07T03:47:53.925Z,77.37
2019-02-07T03:48:53.917Z,77.85
2019-02-07T03:49:53.900Z,77.44
2019-02-07T03:50:53.915Z,76.43
2019-02-07T03:51:53.890Z,77.02
2019-02-07T03:52:53.877Z,76.81
2019-02-07T03:53:53.872Z,76.50
2019-02-07T03:54:53.852Z,77.75
2019-02-07T03:55:53.862Z,77.33
2019-02-07T03:56:53.828Z,77.95
2019-02-07T03:57:53.816Z,76.92
2019-02-07T03:58:53.807Z,76.81
2019-02-07T03:59:53.805Z,76.50
2019-02-07T04:00:53.808Z,76.29
2019-02-07T04:01:53.774Z,76.29
2019-02-07T04:02:53.762Z,76.09
2019-02-07T04:03:53.752Z,76.29
2019-02-07T04:04:53.740Z,76.09
2019-02-07T04:05:53.736Z,75.36
2019-02-07T04:06:53.746Z,76.36
2019-02-07T04:07:53.708Z,76.09
2019-02-07T04:08:53.696Z,75.15
2019-02-07T04:09:53.705Z,75.36
2019-02-07T04:10:53.696Z,76.09
2019-02-07T04:11:53.667Z,75.46
2019-02-07T04:12:53.685Z,75.36
2019-02-07T04:13:53.644Z,75.26
2019-02-07T04:14:53.643Z,76.05
2019-02-07T04:15:53.647Z,76.19
2019-02-07T04:16:53.612Z,76.15
2019-02-07T04:17:53.606Z,76.15
2019-02-07T04:18:53.599Z,76.15
2019-02-07T04:19:53.583Z,76.19
2019-02-07T04:20:53.590Z,76.50
2019-02-07T04:21:53.568Z,76.61
2019-02-07T04:22:53.547Z,76.29
2019-02-07T04:23:53.539Z,76.92
2019-02-07T04:24:53.532Z,76.61
2019-02-07T04:25:53.513Z,76.50
2019-02-07T04:26:53.529Z,77.12
2019-02-07T04:27:53.491Z,76.50
2019-02-07T04:28:53.503Z,76.81
2019-02-07T04:29:53.468Z,76.40
2019-02-07T04:30:53.457Z,77.12
2019-02-07T04:31:53.472Z,77.64
2019-02-07T04:32:53.434Z,75.88
2019-02-07T04:33:53.423Z,76.15
2019-02-07T04:34:53.414Z,76.09
2019-02-07T04:35:53.401Z,75.88
2019-02-07T04:36:53.392Z,75.36
2019-02-07T04:37:53.409Z,75.32
2019-02-07T04:38:53.378Z,75.26
2019-02-07T04:39:53.369Z,74.60
2019-02-07T04:40:53.357Z,75.02
2019-02-07T04:41:53.341Z,75.63
2019-02-07T04:42:53.363Z,75.32
2019-02-07T04:43:53.317Z,74.91
2019-02-07T04:44:53.307Z,75.02
2019-02-07T04:45:53.302Z,75.32
2019-02-07T04:46:53.291Z,74.91
2019-02-07T04:47:53.306Z,74.91
2019-02-07T04:48:53.291Z,74.50
2019-02-07T04:49:53.255Z,74.50
2019-02-07T04:50:53.249Z,74.40
2019-02-07T04:51:53.232Z,74.40
2019-02-07T04:52:53.234Z,74.40
2019-02-07T04:53:53.254Z,74.60
2019-02-07T04:54:53.200Z,74.29
2019-02-07T04:55:53.194Z,74.29
2019-02-07T04:56:53.179Z,74.71
2019-02-07T04:57:53.170Z,74.50
2019-02-07T04:58:53.181Z,74.05
2019-02-07T04:59:53.160Z,74.29
2019-02-07T05:00:53.147Z,74.29
2019-02-07T05:01:53.126Z,74.71
2019-02-07T05:02:53.118Z,74.29
2019-02-07T05:03:53.128Z,74.19
2019-02-07T05:04:53.097Z,74.60
2019-02-07T05:05:53.084Z,74.36
2019-02-07T05:06:53.079Z,74.40
2019-02-07T05:07:53.061Z,74.50
2019-02-07T05:08:53.072Z,74.40
2019-02-07T05:09:53.044Z,74.26
2019-02-07T05:10:53.036Z,74.57
2019-02-07T05:11:53.018Z,74.05
2019-02-07T05:12:53.012Z,74.91
2019-02-07T05:13:53.026Z,74.57
2019-02-07T05:14:52.986Z,74.67
2019-02-07T05:15:53.020Z,74.26
2019-02-07T05:16:52.970Z,74.46
2019-02-07T05:17:52.955Z,74.60
2019-02-07T05:18:52.949Z,74.57
2019-02-07T05:19:52.953Z,74.36
2019-02-07T05:20:52.930Z,74.26
2019-02-07T05:21:52.910Z,73.63
2019-02-07T05:22:52.904Z,73.53
2019-02-07T05:23:52.888Z,73.74
2019-02-07T05:24:52.900Z,73.43
2019-02-07T05:25:52.895Z,73.32
2019-02-07T05:26:52.868Z,73.43
2019-02-07T05:27:52.855Z,73.32
2019-02-07T05:28:52.843Z,73.53
2019-02-07T05:29:52.858Z,73.11
2019-02-07T05:30:52.813Z,73.32
2019-02-07T05:31:52.823Z,73.32
2019-02-07T05:32:52.805Z,73.81
2019-02-07T05:33:52.785Z,73.43
2019-02-07T05:34:52.783Z,73.22
2019-02-07T05:35:52.785Z,73.32
2019-02-07T05:36:52.749Z,73.11
2019-02-07T05:37:52.740Z,73.08
2019-02-07T05:38:52.731Z,73.29
2019-02-07T05:39:52.717Z,72.88
2019-02-07T05:40:52.728Z,73.08
2019-02-07T05:41:52.696Z,72.67
2019-02-07T05:42:52.687Z,72.67
2019-02-07T05:43:52.675Z,72.77
2019-02-07T05:44:52.663Z,72.98
2019-02-07T05:45:52.672Z,72.15
2019-02-07T05:46:52.651Z,72.15
2019-02-07T05:47:52.632Z,72.36
2019-02-07T05:48:52.622Z,72.36
2019-02-07T05:49:52.611Z,72.22
2019-02-07T05:50:52.622Z,72.15
2019-02-07T05:51:52.588Z,72.15
2019-02-07T05:52:52.780Z,72.15
2019-02-07T05:53:52.575Z,72.22
2019-02-07T05:54:52.561Z,72.64
2019-02-07T05:55:52.564Z,72.33
2019-02-07T05:56:52.537Z,72.36
2019-02-07T05:57:52.527Z,72.43
2019-02-07T05:58:52.515Z,72.53
2019-02-07T05:59:52.504Z,72.74
2019-02-07T06:00:52.527Z,73.05
2019-02-07T06:01:52.482Z,72.94
2019-02-07T06:02:52.475Z,73.25
2019-02-07T06:03:52.461Z,73.57
2019-02-07T06:04:52.543Z,73.67
2019-02-07T06:05:52.443Z,73.05
2019-02-07T06:06:52.455Z,72.94
2019-02-07T06:07:52.416Z,72.94
2019-02-07T06:08:52.404Z,73.22
2019-02-07T06:09:52.397Z,72.85
2019-02-07T06:10:52.384Z,73.43
2019-02-07T06:11:52.395Z,73.05
2019-02-07T06:12:52.368Z,73.02
2019-02-07T06:13:52.359Z,73.54
2019-02-07T06:14:52.338Z,73.12
2019-02-07T06:15:52.331Z,73.12
2019-02-07T06:17:02.300Z,73.22
2019-02-07T06:17:53.312Z,73.22
2019-02-07T06:18:52.298Z,73.12
2019-02-07T06:19:52.294Z,73.33
2019-02-07T06:20:52.277Z,73.33
2019-02-07T06:21:52.282Z,73.33
2019-02-07T06:22:52.253Z,73.33
2019-02-07T06:23:52.259Z,73.19
2019-02-07T06:24:52.239Z,73.54
2019-02-07T06:25:52.231Z,73.12
2019-02-07T06:26:52.235Z,73.33
2019-02-07T06:27:52.202Z,73.50
2019-02-07T06:28:52.199Z,73.43
2019-02-07T06:29:52.190Z,74.36
2019-02-07T06:30:52.169Z,74.15
2019-02-07T06:31:52.201Z,74.26
2019-02-07T06:32:52.145Z,74.36
2019-02-07T06:33:52.138Z,74.15
2019-02-07T06:34:52.140Z,74.43
2019-02-07T06:35:52.113Z,74.02
2019-02-07T06:36:52.107Z,74.02
2019-02-07T06:37:52.112Z,74.02
2019-02-07T06:38:53.092Z,74.33
2019-02-07T06:39:52.071Z,74.22
2019-02-07T06:40:52.076Z,74.22
2019-02-07T06:41:52.062Z,74.12
2019-02-07T06:42:52.071Z,74.12
2019-02-07T06:43:52.032Z,74.22
2019-02-07T06:44:52.030Z,74.22
2019-02-07T06:45:52.024Z,74.53
2019-02-07T06:46:52.002Z,74.43
2019-02-07T06:47:52.029Z,74.63
2019-02-07T06:48:51.977Z,74.95
2019-02-07T06:49:51.967Z,74.84
2019-02-07T06:50:51.982Z,74.71
2019-02-07T06:51:51.949Z,75.15
2019-02-07T06:52:51.934Z,75.88
2019-02-07T06:53:51.953Z,75.53
2019-02-07T06:54:51.919Z,75.12
2019-02-07T06:55:51.934Z,75.95
2019-02-07T06:56:51.889Z,75.95
2019-02-07T06:57:51.881Z,75.63
2019-02-07T06:58:51.900Z,76.26
2019-02-07T06:59:51.869Z,76.26
2019-02-07T07:00:51.883Z,76.26
2019-02-07T07:01:51.840Z,76.46
2019-02-07T07:02:51.826Z,76.67
2019-02-07T07:03:51.837Z,77.39
2019-02-07T07:04:51.804Z,77.08
2019-02-07T07:05:51.796Z,77.60
2019-02-07T07:06:51.793Z,77.39
2019-02-07T07:07:51.819Z,77.56
2019-02-07T07:08:51.821Z,77.50
2019-02-07T07:09:52.027Z,77.60
2019-02-07T07:10:51.784Z,77.50
2019-02-07T07:11:51.746Z,77.70
2019-02-07T07:12:51.757Z,77.56
2019-02-07T07:13:51.709Z,77.46
2019-02-07T07:14:51.727Z,77.67
2019-02-07T07:15:51.692Z,77.98
2019-02-07T07:16:51.677Z,78.39
2019-02-07T07:17:51.676Z,79.22
2019-02-07T07:18:51.654Z,79.11
2019-02-07T07:19:51.662Z,78.97
2019-02-07T07:20:51.634Z,78.45
2019-02-07T07:21:51.640Z,78.66
2019-02-07T07:22:51.733Z,79.90
2019-02-07T07:23:51.603Z,79.69
2019-02-07T07:24:51.609Z,80.21
2019-02-07T07:25:51.583Z,80.56
2019-02-07T07:26:51.568Z,81.04
2019-02-07T07:27:51.574Z,80.83
2019-02-07T07:28:51.562Z,81.24
2019-02-07T07:29:51.555Z,81.96
2019-02-07T07:30:51.526Z,82.17
2019-02-07T07:31:51.515Z,82.17
2019-02-07T07:32:51.506Z,81.93
2019-02-07T07:33:51.500Z,81.62
2019-02-07T07:34:51.531Z,82.34
2019-02-07T07:35:51.472Z,82.65
2019-02-07T07:36:51.462Z,82.14
2019-02-07T07:37:51.452Z,82.75
2019-02-07T07:38:51.443Z,82.86
2019-02-07T07:39:51.456Z,83.23
2019-02-07T07:40:51.422Z,82.30
2019-02-07T07:41:51.417Z,82.51
2019-02-07T07:42:51.398Z,82.51
2019-02-07T07:43:51.389Z,82.61
2019-02-07T07:44:51.401Z,82.51
2019-02-07T07:45:51.366Z,82.51
2019-02-07T07:46:51.356Z,82.40
2019-02-07T07:47:51.351Z,82.61
2019-02-07T07:48:51.431Z,82.10
2019-02-07T07:49:51.346Z,82.26
2019-02-07T07:50:51.314Z,81.65
2019-02-07T07:51:51.299Z,81.96
2019-02-07T07:52:51.289Z,81.96
2019-02-07T07:53:51.289Z,82.06
2019-02-07T07:54:51.299Z,82.06
2019-02-07T07:55:51.260Z,81.96
2019-02-07T07:56:51.253Z,81.65
2019-02-07T07:57:51.239Z,81.65
2019-02-07T07:58:51.223Z,81.65
2019-02-07T07:59:51.217Z,81.85
2019-02-07T08:00:51.245Z,81.96
2019-02-07T08:01:51.199Z,81.34
2019-02-07T08:02:51.186Z,81.44
2019-02-07T08:03:51.173Z,81.71
2019-02-07T08:04:51.171Z,81.30
2019-02-07T08:05:53.336Z,81.81
2019-02-07T08:06:51.143Z,81.40
2019-02-07T08:07:51.142Z,81.85
2019-02-07T08:08:51.134Z,81.75
2019-02-07T08:09:51.107Z,81.61
2019-02-07T08:10:51.121Z,81.44
2019-02-07T08:11:51.085Z,81.51
2019-02-07T08:12:51.073Z,81.81
2019-02-07T08:13:51.085Z,81.09
2019-02-07T08:14:51.065Z,81.20
2019-02-07T08:15:51.047Z,81.09
2019-02-07T08:16:51.050Z,80.79
2019-02-07T08:17:51.020Z,80.68
2019-02-07T08:18:51.009Z,80.37
2019-02-07T08:19:51.006Z,79.75
2019-02-07T08:20:51.006Z,79.82
2019-02-07T08:21:50.996Z,79.82
2019-02-07T08:22:50.964Z,79.75
2019-02-07T08:23:50.958Z,79.82
2019-02-07T08:24:50.949Z,80.06
2019-02-07T08:25:50.936Z,79.86
2019-02-07T08:26:50.947Z,79.96
2019-02-07T08:27:50.922Z,79.82
2019-02-07T08:28:50.902Z,79.61
2019-02-07T08:29:50.893Z,79.61
2019-02-07T08:30:50.878Z,79.55
2019-02-07T08:31:50.893Z,80.02
2019-02-07T08:32:50.857Z,79.61
2019-02-07T08:33:50.853Z,79.51
2019-02-07T08:34:50.845Z,79.61
2019-02-07T08:35:50.854Z,79.41
2019-02-07T08:36:50.816Z,79.51
2019-02-07T08:37:50.831Z,79.82
2019-02-07T08:38:50.799Z,79.82
2019-02-07T08:39:50.781Z,79.61
2019-02-07T08:40:50.771Z,79.58
2019-02-07T08:41:50.763Z,81.12
2019-02-07T08:42:50.774Z,80.71
2019-02-07T08:43:50.748Z,79.68
2019-02-07T08:44:50.729Z,79.75
2019-02-07T08:45:50.719Z,77.79
2019-02-07T08:46:50.754Z,78.00
2019-02-07T08:47:58.428Z,78.14
2019-02-07T08:48:51.727Z,78.20
2019-02-07T08:49:50.676Z,79.03
2019-02-07T08:50:50.679Z,78.24
2019-02-07T08:51:50.711Z,78.86
2019-02-07T08:52:50.687Z,78.86
2019-02-07T08:53:50.640Z,78.65
2019-02-07T08:54:50.617Z,79.27
2019-02-07T08:55:50.624Z,79.27
2019-02-07T08:56:50.609Z,79.16
2019-02-07T08:57:50.689Z,79.06
2019-02-07T08:58:50.601Z,79.27
2019-02-07T08:59:50.571Z,79.68
2019-02-07T09:00:50.561Z,79.16
2019-02-07T09:01:50.541Z,79.37
2019-02-07T09:02:52.101Z,78.96
2019-02-07T09:03:50.541Z,79.27
2019-02-07T09:04:50.516Z,79.37
2019-02-07T09:05:50.502Z,79.06
2019-02-07T09:06:50.494Z,79.27
2019-02-07T09:07:50.483Z,79.58
2019-02-07T09:08:50.483Z,79.58
2019-02-07T09:09:50.461Z,79.44
2019-02-07T09:10:50.446Z,79.54
2019-02-07T09:11:50.445Z,79.79
2019-02-07T09:12:50.452Z,80.05
2019-02-07T09:13:53.725Z,79.85
2019-02-07T09:14:50.404Z,79.33
2019-02-07T09:15:50.390Z,79.23
2019-02-07T09:16:50.381Z,78.78
2019-02-07T09:17:50.382Z,78.64
2019-02-07T09:18:50.379Z,78.23
2019-02-07T09:19:50.351Z,78.13
2019-02-07T09:20:50.343Z,78.44
2019-02-07T09:21:50.335Z,78.40
2019-02-07T09:22:50.330Z,78.50
2019-02-07T09:23:50.325Z,79.26
2019-02-07T09:24:50.301Z,78.71
2019-02-07T09:25:50.294Z,78.30
2019-02-07T09:26:50.274Z,79.22
2019-02-07T09:27:50.262Z,78.61
2019-02-07T09:28:50.285Z,78.09
2019-02-07T09:29:50.250Z,78.61
2019-02-07T09:30:50.231Z,78.71
2019-02-07T09:31:50.217Z,78.40
2019-02-07T09:32:50.220Z,78.61
2019-02-07T09:33:50.217Z,78.71
2019-02-07T09:34:50.220Z,78.81
2019-02-07T09:35:50.178Z,78.92
2019-02-07T09:36:50.186Z,79.22
2019-02-07T09:37:50.226Z,78.30
2019-02-07T09:38:50.146Z,78.47
2019-02-07T09:39:50.155Z,78.61
2019-02-07T09:40:50.134Z,78.57
2019-02-07T09:41:50.116Z,78.98
2019-02-07T09:42:50.112Z,77.34
2019-02-07T09:43:50.093Z,77.85
2019-02-07T09:44:50.100Z,77.55
2019-02-07T09:45:50.071Z,77.13
2019-02-07T09:46:50.094Z,76.93
2019-02-07T09:47:50.050Z,76.72
2019-02-07T09:48:50.037Z,77.00
2019-02-07T09:49:50.057Z,76.07
2019-02-07T09:50:50.017Z,75.35
2019-02-07T09:51:50.014Z,75.25
2019-02-07T09:52:50.030Z,75.56
2019-02-07T09:53:49.991Z,74.74
2019-02-07T09:54:50.019Z,75.35
2019-02-07T09:55:49.961Z,75.04
2019-02-07T09:56:49.953Z,74.74
2019-02-07T09:57:49.963Z,75.25
2019-02-07T09:58:49.929Z,75.04
2019-02-07T09:59:58.616Z,75.15
2019-02-07T10:00:49.906Z,73.61
2019-02-07T10:01:49.920Z,73.47
2019-02-07T10:02:49.885Z,73.98
2019-02-07T10:03:49.876Z,73.68
2019-02-07T10:04:49.861Z,73.57
2019-02-07T10:05:49.873Z,73.57
2019-02-07T10:06:49.855Z,73.16
2019-02-07T10:07:49.831Z,73.16
2019-02-07T10:08:49.822Z,73.57
2019-02-07T10:09:49.817Z,73.02
2019-02-07T10:10:49.837Z,73.02
2019-02-07T10:11:49.784Z,72.72
2019-02-07T10:12:49.774Z,72.61
2019-02-07T10:13:49.768Z,72.03
2019-02-07T10:14:49.788Z,72.03
2019-02-07T10:15:49.767Z,70.56
2019-02-07T10:16:49.733Z,70.67
2019-02-07T10:17:49.723Z,71.28
2019-02-07T10:18:49.708Z,70.87
2019-02-07T10:19:49.700Z,69.64
2019-02-07T10:20:49.708Z,69.33
2019-02-07T10:21:49.694Z,68.72
2019-02-07T10:22:49.703Z,69.23
2019-02-07T10:23:49.662Z,69.43
2019-02-07T10:24:49.643Z,68.92
2019-02-07T10:25:51.343Z,69.33
2019-02-07T10:26:49.625Z,68.27
2019-02-07T10:27:49.614Z,67.76
2019-02-07T10:28:49.604Z,68.17
2019-02-07T10:29:49.597Z,68.17
2019-02-07T10:30:49.642Z,68.48
2019-02-07T10:31:49.584Z,68.89
2019-02-07T10:32:49.564Z,68.07
2019-02-07T10:33:49.552Z,68.89
2019-02-07T10:34:49.551Z,67.73
2019-02-07T10:35:49.529Z,68.17
2019-02-07T10:36:49.582Z,68.07
2019-02-07T10:37:49.511Z,67.76
2019-02-07T10:38:49.500Z,67.73
2019-02-07T10:39:49.485Z,67.94
2019-02-07T10:40:49.555Z,67.35
2019-02-07T10:41:49.481Z,68.17
2019-02-07T10:42:49.459Z,68.76
2019-02-07T10:43:49.464Z,68.04
2019-02-07T10:44:49.438Z,68.86
2019-02-07T10:45:49.426Z,68.59
2019-02-07T10:46:49.429Z,68.96
2019-02-07T10:47:49.400Z,68.96
2019-02-07T10:48:49.392Z,68.48
2019-02-07T10:49:58.890Z,68.76
2019-02-07T10:50:50.367Z,68.65
2019-02-07T10:51:49.372Z,68.65
2019-02-07T10:52:49.356Z,68.79
2019-02-07T10:53:49.333Z,68.76
2019-02-07T10:54:49.330Z,68.76
2019-02-07T10:55:49.314Z,68.24
2019-02-07T10:56:49.415Z,68.41
2019-02-07T10:57:49.294Z,67.80
2019-02-07T10:58:49.281Z,68.01
2019-02-07T10:59:49.270Z,67.40
2019-02-07T11:00:49.271Z,66.67
2019-02-07T11:01:49.259Z,67.49
2019-02-07T11:02:49.262Z,66.67
2019-02-07T11:03:49.260Z,66.78
2019-02-07T11:04:49.216Z,65.24
2019-02-07T11:05:49.203Z,63.29
2019-02-07T11:06:49.211Z,62.17
2019-02-07T11:07:49.203Z,61.73
2019-02-07T11:08:49.213Z,60.12
2019-02-07T11:09:49.160Z,60.53
2019-02-07T11:10:49.152Z,60.02
2019-02-07T11:11:49.190Z,58.69
2019-02-07T11:12:49.153Z,58.28
2019-02-07T11:13:49.122Z,58.28
2019-02-07T11:14:49.111Z,58.58
2019-02-07T11:15:49.099Z,59.20
2019-02-07T11:16:49.135Z,58.86
2019-02-07T11:17:49.104Z,58.66
2019-02-07T11:18:55.567Z,58.66
2019-02-07T11:19:50.056Z,58.66
2019-02-07T11:20:49.046Z,59.38
2019-02-07T11:21:49.093Z,59.07
2019-02-07T11:22:57.655Z,58.66
2019-02-07T11:23:56.546Z,59.17
2019-02-07T11:24:57.803Z,58.56
2019-02-07T11:25:48.988Z,58.66
2019-02-07T11:26:56.520Z,58.86
2019-02-07T11:27:56.530Z,58.73
2019-02-07T11:28:58.794Z,58.53
2019-02-07T11:29:56.482Z,58.73
2019-02-07T11:30:48.934Z,58.02
2019-02-07T11:31:56.467Z,58.22
2019-02-07T11:32:48.916Z,58.63
2019-02-07T11:33:57.872Z,58.53
2019-02-07T11:34:48.897Z,58.22
2019-02-07T11:35:48.878Z,58.43
2019-02-07T11:36:54.198Z,58.22
2019-02-07T11:37:49.865Z,58.12
2019-02-07T11:38:58.397Z,58.33
2019-02-07T11:39:48.838Z,58.15
2019-02-07T11:40:48.828Z,58.56
2019-02-07T11:41:57.373Z,58.35
2019-02-07T11:42:57.354Z,58.97
2019-02-07T11:43:56.342Z,58.73
2019-02-07T11:44:57.504Z,58.15
2019-02-07T11:45:56.310Z,58.76
2019-02-07T11:47:05.245Z,58.15
2019-02-07T11:49:06.601Z,58.66
2019-02-07T11:51:10.204Z,58.45
2019-02-07T11:52:17.714Z,58.86
2019-02-07T11:53:17.707Z,58.56
2019-02-07T11:54:18.702Z,58.66
2019-02-07T11:55:19.006Z,58.56
2019-02-07T11:56:17.674Z,58.53
2019-02-07T11:57:17.672Z,58.86
2019-02-07T11:58:17.676Z,58.35
2019-02-07T11:59:17.634Z,58.63
2019-02-07T12:00:19.121Z,58.22
2019-02-07T12:01:10.090Z,58.43
2019-02-07T12:02:10.073Z,58.53
2019-02-07T12:03:10.059Z,58.53
2019-02-07T12:04:10.048Z,58.53
2019-02-07T12:05:10.057Z,58.22
2019-02-07T12:06:10.028Z,58.33
2019-02-07T12:07:10.019Z,58.43
2019-02-07T12:08:10.016Z,58.84
2019-02-07T12:09:09.999Z,58.43
2019-02-07T12:10:10.039Z,58.12
2019-02-07T12:11:09.980Z,58.56
2019-02-07T12:12:09.965Z,58.66
2019-02-07T12:13:09.951Z,58.45
2019-02-07T12:14:09.946Z,58.45
2019-02-07T12:15:09.949Z,58.43
2019-02-07T12:16:09.929Z,58.73
2019-02-07T12:17:17.466Z,59.04
2019-02-07T12:18:09.897Z,57.99
2019-02-07T12:19:17.764Z,58.70
2019-02-07T12:20:10.921Z,58.29
2019-02-07T12:21:09.864Z,57.89
2019-02-07T12:22:09.854Z,58.53
2019-02-07T12:23:09.848Z,58.73
2019-02-07T12:24:19.665Z,58.53
2019-02-07T12:25:18.719Z,58.63
2019-02-07T12:26:09.810Z,58.43
2019-02-07T12:27:09.796Z,58.70
2019-02-07T12:28:09.790Z,58.50
2019-02-07T12:29:09.856Z,58.70
2019-02-07T12:30:09.768Z,58.29
2019-02-07T12:31:09.780Z,58.29
2019-02-07T12:32:09.777Z,58.02
2019-02-07T12:33:09.735Z,58.33
2019-02-07T12:34:09.726Z,58.70
2019-02-07T12:35:09.713Z,58.29
2019-02-07T12:36:09.832Z,58.20
2019-02-07T12:37:09.694Z,57.89
2019-02-07T12:38:09.690Z,57.89
2019-02-07T12:39:09.671Z,58.53
2019-02-07T12:40:09.685Z,58.20
2019-02-07T12:41:09.722Z,58.61
2019-02-07T12:42:09.636Z,58.29
2019-02-07T12:43:09.631Z,57.99
2019-02-07T12:44:09.646Z,58.09
2019-02-07T12:45:09.610Z,57.66
2019-02-07T12:46:10.213Z,57.68
2019-02-07T12:47:09.637Z,58.07
2019-02-07T12:48:10.212Z,57.79
2019-02-07T12:49:09.559Z,56.76
2019-02-07T12:50:09.573Z,57.79
2019-02-07T12:51:09.543Z,56.97
2019-02-07T12:52:09.558Z,56.66
2019-02-07T12:53:09.522Z,56.76
2019-02-07T12:54:09.510Z,56.76
2019-02-07T12:55:09.552Z,56.66